createdAt,value
2019-04-21T00:00:32.127Z,16.17
2019-04-21T00:03:07.379Z,19.05
2019-04-21T00:05:53.294Z,16.87
2019-04-21T00:08:39.258Z,17.92
2019-04-21T00:11:11.034Z,20.20
2019-04-21T00:13:28.185Z,15.00
2019-04-21T00:15:53.235Z,16.12
2019-04-21T00:18:40.866Z,17.73
2019-04-21T00:21:12.157Z,16.15
2019-04-21T00:23:41.227Z,11.93
2019-04-21T00:26:16.499Z,14.78
2019-04-21T00:28:58.110Z,14.05
2019-04-21T00:31:15.331Z,16.12
2019-04-21T00:33:31.312Z,14.60
2019-04-21T00:36:05.357Z,18.12
2019-04-21T00:38:59.128Z,16.90
2019-04-21T00:41:19.283Z,20.32
2019-04-21T00:43:37.294Z,15.45
2019-04-21T00:46:03.444Z,17.32
2019-04-21T00:48:42.447Z,14.35
2019-04-21T00:51:25.013Z,17.10
2019-04-21T00:53:51.636Z,18.52
2019-04-21T00:56:34.016Z,14.58
2019-04-21T00:58:48.751Z,13.53
2019-04-21T01:01:15.044Z,15.70
2019-04-21T01:03:46.361Z,14.53
2019-04-21T01:06:16.338Z,14.90
2019-04-21T01:08:42.778Z,20.60
2019-04-21T01:11:15.307Z,16.25
2019-04-21T01:13:46.785Z,20.45
2019-04-21T01:16:14.112Z,16.40
2019-04-21T01:18:39.441Z,15.25
2019-04-21T01:20:48.295Z,18.02
2019-04-21T01:23:16.735Z,16.00
2019-04-21T01:25:55.860Z,17.55
2019-04-21T01:28:32.816Z,13.58
2019-04-21T01:31:07.481Z,16.57
2019-04-21T01:33:41.182Z,13.03
2019-04-21T01:35:59.557Z,13.53
2019-04-21T01:38:34.368Z,20.75
2019-04-21T01:41:10.255Z,12.75
2019-04-21T01:43:28.143Z,14.43
2019-04-21T01:46:02.253Z,15.38
2019-04-21T01:48:24.662Z,14.35
2019-04-21T01:50:55.259Z,17.77
2019-04-21T01:53:48.282Z,15.48
2019-04-21T01:56:34.048Z,17.12
2019-04-21T01:58:55.288Z,14.03
2019-04-21T02:01:37.224Z,13.35
2019-04-21T02:03:59.943Z,15.40
2019-04-21T02:06:37.372Z,18.00
2019-04-21T02:08:57.729Z,16.75
2019-04-21T02:11:31.428Z,14.35
2019-04-21T02:14:05.401Z,14.50
2019-04-21T02:16:28.349Z,18.80
2019-04-21T02:18:54.451Z,13.45
2019-04-21T02:21:25.401Z,15.53
2019-04-21T02:24:09.353Z,15.00
2019-04-21T02:26:27.203Z,16.05
2019-04-21T02:29:02.056Z,16.60
2019-04-21T02:31:39.604Z,17.07
2019-04-21T02:36:40.202Z,15.23
2019-04-21T02:39:16.432Z,16.60
2019-04-21T02:44:10.103Z,17.90
2019-04-21T02:46:38.503Z,19.48
2019-04-21T02:49:11.212Z,16.42
2019-04-21T02:51:33.699Z,18.15
2019-04-21T02:59:05.329Z,15.63
2019-04-21T03:04:40.408Z,17.75
2019-04-21T03:07:13.100Z,19.12
2019-04-21T03:12:13.133Z,19.12
2019-04-21T03:14:50.433Z,15.55
2019-04-21T03:19:48.213Z,18.52
2019-04-21T03:22:13.671Z,16.90
2019-04-21T03:24:53.467Z,18.45
2019-04-21T03:27:28.824Z,22.62
2019-04-21T03:29:37.214Z,19.57
2019-04-21T03:32:31.094Z,19.77
2019-04-21T03:34:57.664Z,13.43
2019-04-21T03:39:36.676Z,17.13
2019-04-21T03:42:10.446Z,18.07
2019-04-21T03:44:32.757Z,14.50
2019-04-21T03:52:02.987Z,19.73
2019-04-21T03:54:25.948Z,19.37
2019-04-21T03:57:11.307Z,17.20
2019-04-21T03:59:20.193Z,17.60
2019-04-21T04:02:08.614Z,16.47
2019-04-21T04:07:49.640Z,23.23
2019-04-21T04:10:08.415Z,25.17
2019-04-21T04:17:32.861Z,20.47
2019-04-21T04:20:07.847Z,17.13
2019-04-21T04:25:07.749Z,18.70
2019-04-21T04:30:08.034Z,20.07
2019-04-21T04:32:42.131Z,20.43
2019-04-21T04:40:10.023Z,20.17
2019-04-21T04:45:15.043Z,19.20
2019-04-21T04:49:59.934Z,22.40
2019-04-21T05:00:15.388Z,18.07
2019-04-21T05:05:15.699Z,19.90
2019-04-21T05:07:42.879Z,18.37
2019-04-21T05:09:59.675Z,24.27
2019-04-21T05:15:04.798Z,22.27
2019-04-21T05:20:10.439Z,17.53
2019-04-21T05:22:24.300Z,18.97
2019-04-21T05:24:48.040Z,17.73
2019-04-21T05:27:55.070Z,21.63
2019-04-21T05:33:27.723Z,18.47
2019-04-21T05:36:04.771Z,21.03
2019-04-21T05:38:56.648Z,17.63
2019-04-21T05:41:18.212Z,21.20
2019-04-21T05:43:56.492Z,23.93
2019-04-21T05:46:25.366Z,21.63
2019-04-21T05:51:55.804Z,18.73
2019-04-21T05:54:39.447Z,17.92
2019-04-21T05:57:03.796Z,19.42
2019-04-21T05:59:33.942Z,18.00
2019-04-21T06:02:17.828Z,19.70
2019-04-21T06:04:52.652Z,20.17
2019-04-21T06:07:06.967Z,19.10
2019-04-21T06:09:35.205Z,20.88
2019-04-21T06:12:02.925Z,17.23
2019-04-21T06:14:37.505Z,19.75
2019-04-21T06:17:06.099Z,18.10
2019-04-21T06:19:36.667Z,19.85
2019-04-21T06:21:57.168Z,20.70
2019-04-21T06:24:29.876Z,20.50
2019-04-21T06:29:30.113Z,16.82
2019-04-21T06:32:22.014Z,21.48
2019-04-21T06:34:24.971Z,23.30
2019-04-21T06:37:18.892Z,18.87
2019-04-21T06:39:48.270Z,20.50
2019-04-21T06:41:58.852Z,16.97
2019-04-21T06:44:32.033Z,21.20
2019-04-21T06:47:00.884Z,17.75
2019-04-21T06:49:27.888Z,22.70
2019-04-21T06:52:07.304Z,17.37
2019-04-21T06:56:58.712Z,18.10
2019-04-21T06:59:29.796Z,18.17
2019-04-21T07:01:59.839Z,20.75
2019-04-21T07:04:22.320Z,21.10
2019-04-21T07:06:54.956Z,18.00
2019-04-21T07:09:26.300Z,19.50
2019-04-21T07:11:47.854Z,18.05
2019-04-21T07:14:29.271Z,25.17
2019-04-21T07:16:57.875Z,20.30
2019-04-21T07:19:30.636Z,19.15
2019-04-21T07:21:52.556Z,18.67
2019-04-21T07:24:29.304Z,20.35
2019-04-21T07:26:51.203Z,20.15
2019-04-21T07:29:20.631Z,18.40
2019-04-21T07:31:59.161Z,16.55
2019-04-21T07:34:22.654Z,18.73
2019-04-21T07:36:54.888Z,18.85
2019-04-21T07:39:12.092Z,20.37
2019-04-21T07:41:42.157Z,21.50
2019-04-21T07:44:04.919Z,20.02
2019-04-21T07:46:36.586Z,22.67
2019-04-21T07:49:21.039Z,20.25
2019-04-21T07:52:16.895Z,20.23
2019-04-21T07:54:55.294Z,17.55
2019-04-21T07:57:02.109Z,15.23
2019-04-21T07:59:46.108Z,15.93
2019-04-21T08:02:11.590Z,15.13
2019-04-21T08:07:04.897Z,19.67
2019-04-21T08:09:31.964Z,16.73
2019-04-21T08:12:01.393Z,15.63
2019-04-21T08:14:35.331Z,16.73
2019-04-21T08:17:04.929Z,17.62
2019-04-21T08:19:32.204Z,13.72
2019-04-21T08:22:07.771Z,13.25
2019-04-21T08:24:32.754Z,13.25
2019-04-21T08:27:04.980Z,15.83
2019-04-21T08:29:38.057Z,15.03
2019-04-21T08:32:02.876Z,17.45
2019-04-21T08:34:30.653Z,14.55
2019-04-21T08:36:50.913Z,13.83
2019-04-21T08:39:28.864Z,12.45
2019-04-21T08:41:56.160Z,13.70
2019-04-21T08:44:28.518Z,16.97
2019-04-21T08:49:20.650Z,14.75
2019-04-21T08:52:01.738Z,12.63
2019-04-21T08:54:24.973Z,13.03
2019-04-21T08:57:28.974Z,12.73
2019-04-21T08:59:59.436Z,15.68
2019-04-21T09:02:43.106Z,13.50
2019-04-21T09:05:09.562Z,10.65
2019-04-21T09:10:02.843Z,12.78
2019-04-21T09:12:28.010Z,11.83
2019-04-21T09:15:01.560Z,13.48
2019-04-21T09:17:27.674Z,10.48
2019-04-21T09:20:07.766Z,12.95
2019-04-21T09:22:30.794Z,9.85
2019-04-21T09:25:00.130Z,9.75
2019-04-21T09:27:27.864Z,12.20
2019-04-21T09:29:44.814Z,11.68
2019-04-21T09:32:12.497Z,12.33
2019-04-21T09:34:41.693Z,9.90
2019-04-21T09:37:19.096Z,14.18
2019-04-21T09:39:40.972Z,14.13
2019-04-21T09:42:06.199Z,8.38
2019-04-21T09:44:38.214Z,9.10
2019-04-21T09:47:05.141Z,9.13
2019-04-21T09:49:33.873Z,20.25
2019-04-21T09:52:02.090Z,8.30
2019-04-21T09:54:33.355Z,9.45
2019-04-21T09:57:03.989Z,8.23
2019-04-21T09:59:33.569Z,10.72
2019-04-21T10:02:06.463Z,11.93
2019-04-21T10:04:26.783Z,8.88
2019-04-21T10:06:54.444Z,9.03
2019-04-21T10:09:22.018Z,22.55
2019-04-21T10:11:50.480Z,13.05
2019-04-21T10:14:18.081Z,9.63
2019-04-21T10:17:05.017Z,8.58
2019-04-21T10:19:32.438Z,11.65
2019-04-21T10:22:02.209Z,8.60
2019-04-21T10:24:30.577Z,11.00
2019-04-21T10:26:58.998Z,8.88
2019-04-21T10:29:29.442Z,12.35
2019-04-21T10:31:55.649Z,9.93
2019-04-21T10:34:23.124Z,11.03
2019-04-21T10:36:51.192Z,8.88
2019-04-21T10:39:21.750Z,12.95
2019-04-21T10:41:49.283Z,9.93
2019-04-21T10:44:16.988Z,10.20
2019-04-21T10:46:47.347Z,11.10
2019-04-21T10:49:14.801Z,9.15
2019-04-21T10:51:43.309Z,11.88
2019-04-21T10:54:11.693Z,10.20
2019-04-21T10:56:43.701Z,14.38
2019-04-21T10:59:08.481Z,13.03
2019-04-21T11:01:36.890Z,13.53
2019-04-21T11:04:21.072Z,10.05
2019-04-21T11:06:44.279Z,11.70
2019-04-21T11:09:11.800Z,10.38
2019-04-21T11:11:39.733Z,12.82
2019-04-21T11:14:08.446Z,10.15
2019-04-21T11:16:37.124Z,10.08
2019-04-21T11:19:06.181Z,13.58
2019-04-21T11:21:34.615Z,9.73
2019-04-21T11:24:02.237Z,11.12
2019-04-21T11:26:29.916Z,9.73
2019-04-21T11:28:58.895Z,9.00
2019-04-21T11:31:27.203Z,9.60
2019-04-21T11:33:55.404Z,12.25
2019-04-21T11:36:22.827Z,9.80
2019-04-21T11:39:20.564Z,11.03
2019-04-21T11:41:37.319Z,11.30
2019-04-21T11:44:05.016Z,10.58
2019-04-21T11:46:32.457Z,18.45
2019-04-21T11:49:00.117Z,10.08
2019-04-21T11:51:28.889Z,10.75
2019-04-21T11:53:56.916Z,10.68
2019-04-21T11:56:25.131Z,9.50
2019-04-21T11:58:53.988Z,9.83
2019-04-21T12:01:21.655Z,9.93
2019-04-21T12:03:49.656Z,8.70
2019-04-21T12:06:17.487Z,10.93
2019-04-21T12:08:49.439Z,13.22
2019-04-21T12:11:15.735Z,9.83
2019-04-21T12:13:43.689Z,10.60
2019-04-21T12:16:12.773Z,10.88
2019-04-21T12:18:40.758Z,9.88
2019-04-21T12:21:09.292Z,9.98
2019-04-21T12:23:36.856Z,10.68
2019-04-21T12:26:05.151Z,10.98
2019-04-21T12:28:32.617Z,8.75
2019-04-21T12:31:00.236Z,11.22
2019-04-21T12:33:45.954Z,8.85
2019-04-21T12:36:13.795Z,12.30
2019-04-21T12:38:48.394Z,9.40
2019-04-21T12:41:10.794Z,10.75
2019-04-21T12:43:38.941Z,10.93
2019-04-21T12:46:07.616Z,10.88
2019-04-21T12:48:35.815Z,8.38
2019-04-21T12:51:03.927Z,9.20
2019-04-21T12:53:31.914Z,7.92
2019-04-21T12:56:00.016Z,13.13
2019-04-21T12:58:29.007Z,11.97
2019-04-21T13:00:56.793Z,8.73
2019-04-21T13:03:25.523Z,9.75
2019-04-21T13:05:53.864Z,8.35
2019-04-21T13:08:21.776Z,9.95
2019-04-21T13:10:49.541Z,8.83
2019-04-21T13:13:17.687Z,8.33
2019-04-21T13:15:45.374Z,12.63
2019-04-21T13:18:14.194Z,10.93
2019-04-21T13:20:42.296Z,12.33
2019-04-21T13:23:10.138Z,8.98
2019-04-21T13:25:38.061Z,7.55
2019-04-21T13:28:06.875Z,10.38
2019-04-21T13:30:34.482Z,9.40
2019-04-21T13:33:03.043Z,9.40
2019-04-21T13:35:30.994Z,8.78
2019-04-21T13:37:58.524Z,8.05
2019-04-21T13:40:52.933Z,8.95
2019-04-21T13:43:06.613Z,13.55
2019-04-21T13:45:34.296Z,7.62
2019-04-21T13:48:01.763Z,10.45
2019-04-21T13:50:29.240Z,11.43
2019-04-21T13:52:56.979Z,12.30
2019-04-21T13:55:25.563Z,8.28
2019-04-21T13:57:54.449Z,10.25
2019-04-21T14:00:22.259Z,9.30
2019-04-21T14:02:49.926Z,10.23
2019-04-21T14:05:18.165Z,9.83
2019-04-21T14:07:46.158Z,8.58
2019-04-21T14:10:15.933Z,8.35
2019-04-21T14:12:44.510Z,10.68
2019-04-21T14:15:12.662Z,7.67
2019-04-21T14:17:40.087Z,8.83
2019-04-21T14:20:09.029Z,11.33
2019-04-21T14:22:37.951Z,10.48
2019-04-21T14:25:06.032Z,9.38
2019-04-21T14:27:34.379Z,9.40
2019-04-21T14:30:02.909Z,12.00
2019-04-21T14:32:31.773Z,8.63
2019-04-21T14:35:00.563Z,8.93
2019-04-21T14:37:28.761Z,10.72
2019-04-21T14:40:04.075Z,7.53
2019-04-21T14:42:26.466Z,6.95
2019-04-21T14:44:54.711Z,8.40
2019-04-21T14:47:40.231Z,7.75
2019-04-21T14:50:28.307Z,7.12
2019-04-21T14:53:14.017Z,7.92
2019-04-21T14:55:43.569Z,6.60
2019-04-21T14:58:11.082Z,10.60
2019-04-21T15:00:52.931Z,7.72
2019-04-21T15:03:21.625Z,7.25
2019-04-21T15:05:49.442Z,9.30
2019-04-21T15:08:17.266Z,9.53
2019-04-21T15:10:45.192Z,9.78
2019-04-21T15:13:13.948Z,7.25
2019-04-21T15:15:41.503Z,7.15
2019-04-21T15:18:08.880Z,6.65
2019-04-21T15:20:36.347Z,9.13
2019-04-21T15:23:04.254Z,7.78
2019-04-21T15:25:32.315Z,7.22
2019-04-21T15:28:00.868Z,6.60
2019-04-21T15:30:28.828Z,7.85
2019-04-21T15:32:56.379Z,6.80
2019-04-21T15:35:24.946Z,7.50
2019-04-21T15:37:53.643Z,9.08
2019-04-21T15:40:32.051Z,6.75
2019-04-21T15:42:50.727Z,8.88
2019-04-21T15:45:18.745Z,12.13
2019-04-21T15:47:47.561Z,8.20
2019-04-21T15:50:17.763Z,7.83
2019-04-21T15:52:45.679Z,7.75
2019-04-21T15:55:32.863Z,10.53
2019-04-21T15:58:10.328Z,7.92
2019-04-21T16:00:52.441Z,6.87
2019-04-21T16:03:20.753Z,10.68
2019-04-21T16:05:48.819Z,6.33
2019-04-21T16:08:16.463Z,7.25
2019-04-21T16:10:50.614Z,6.28
2019-04-21T16:13:13.962Z,6.58
2019-04-21T16:15:41.638Z,6.35
2019-04-21T16:18:10.072Z,5.62
2019-04-21T16:20:37.701Z,7.30
2019-04-21T16:23:06.444Z,8.65
2019-04-21T16:25:34.819Z,8.05
2019-04-21T16:28:03.456Z,8.10
2019-04-21T16:30:30.977Z,6.10
2019-04-21T16:32:59.695Z,6.45
2019-04-21T16:35:27.440Z,8.75
2019-04-21T16:37:57.314Z,4.80
2019-04-21T16:40:25.372Z,5.50
2019-04-21T16:42:54.146Z,8.63
2019-04-21T16:45:22.946Z,5.65
2019-04-21T16:47:53.575Z,7.58
2019-04-21T16:50:19.937Z,7.12
2019-04-21T16:52:52.265Z,6.97
2019-04-21T16:55:39.517Z,6.70
2019-04-21T16:58:28.600Z,7.92
2019-04-21T17:01:10.210Z,5.08
2019-04-21T17:03:32.788Z,6.90
2019-04-21T17:06:03.159Z,6.20
2019-04-21T17:08:29.554Z,9.03
2019-04-21T17:11:09.273Z,7.47
2019-04-21T17:13:27.219Z,11.05
2019-04-21T17:16:16.866Z,6.97
2019-04-21T17:18:40.535Z,5.90
2019-04-21T17:20:58.588Z,7.90
2019-04-21T17:23:22.626Z,8.15
2019-04-21T17:25:50.852Z,10.72
2019-04-21T17:28:19.523Z,6.70
2019-04-21T17:30:48.521Z,6.42
2019-04-21T17:33:21.179Z,5.10
2019-04-21T17:35:45.202Z,8.13
2019-04-21T17:38:14.001Z,6.85
2019-04-21T17:40:42.102Z,9.35
2019-04-21T17:43:14.363Z,6.00
2019-04-21T17:45:39.431Z,6.10
2019-04-21T17:48:13.552Z,10.85
2019-04-21T17:50:55.840Z,6.45
2019-04-21T17:53:48.178Z,6.22
2019-04-21T17:56:29.375Z,5.80
2019-04-21T17:59:06.167Z,9.98
2019-04-21T18:01:35.584Z,10.70
2019-04-21T18:04:06.290Z,8.70
2019-04-21T18:06:57.940Z,11.60
2019-04-21T18:09:41.470Z,6.35
2019-04-21T18:12:00.617Z,7.80
2019-04-21T18:14:11.554Z,11.45
2019-04-21T18:16:42.832Z,10.03
2019-04-21T18:19:08.849Z,7.80
2019-04-21T18:21:54.038Z,9.13
2019-04-21T18:24:20.927Z,11.38
2019-04-21T18:26:54.377Z,7.78
2019-04-21T18:29:17.895Z,9.83
2019-04-21T18:31:48.737Z,7.17
2019-04-21T18:34:49.854Z,8.70
2019-04-21T18:37:24.996Z,8.75
2019-04-21T18:39:59.731Z,8.80
2019-04-21T18:42:47.787Z,8.58
2019-04-21T18:48:06.778Z,7.85
2019-04-21T18:50:51.034Z,8.30
2019-04-21T18:53:39.427Z,7.70
2019-04-21T18:56:05.668Z,8.50
2019-04-21T18:58:30.926Z,6.72
2019-04-21T19:01:06.859Z,12.05
2019-04-21T19:03:35.859Z,7.10
2019-04-21T19:06:05.153Z,9.75
2019-04-21T19:08:51.253Z,8.78
2019-04-21T19:11:13.509Z,10.72
2019-04-21T19:14:15.386Z,10.05
2019-04-21T19:16:33.652Z,15.75
2019-04-21T19:19:11.187Z,17.00
2019-04-21T19:21:24.585Z,16.55
2019-04-21T19:24:01.813Z,13.10
2019-04-21T19:26:33.970Z,12.53
2019-04-21T19:29:07.766Z,16.00
2019-04-21T19:31:35.926Z,13.85
2019-04-21T19:33:49.148Z,12.73
2019-04-21T19:36:07.534Z,13.08
2019-04-21T19:38:48.944Z,18.17
2019-04-21T19:41:20.675Z,14.03
2019-04-21T19:43:51.880Z,13.62
2019-04-21T19:46:21.222Z,17.45
2019-04-21T19:48:54.115Z,16.67
2019-04-21T19:51:17.994Z,13.98
2019-04-21T19:53:44.583Z,13.20
2019-04-21T19:56:00.546Z,17.82
2019-04-21T19:58:33.836Z,17.90
2019-04-21T20:00:57.539Z,15.75
2019-04-21T20:03:26.283Z,13.75
2019-04-21T20:06:02.095Z,14.90
2019-04-21T20:08:36.628Z,12.23
2019-04-21T20:11:11.837Z,14.73
2019-04-21T20:13:52.713Z,16.77
2019-04-21T20:16:15.131Z,13.25
2019-04-21T20:18:27.254Z,16.00
2019-04-21T20:20:50.211Z,13.25
2019-04-21T20:23:22.825Z,16.15
2019-04-21T20:25:50.546Z,13.53
2019-04-21T20:28:31.995Z,14.40
2019-04-21T20:31:08.290Z,14.58
2019-04-21T20:36:08.156Z,13.83
2019-04-21T20:38:24.462Z,16.75
2019-04-21T20:40:51.031Z,21.60
2019-04-21T20:43:34.794Z,17.35
2019-04-21T20:48:21.139Z,17.17
2019-04-21T20:51:01.922Z,15.43
2019-04-21T20:53:27.505Z,18.00
2019-04-21T20:55:53.274Z,15.80
2019-04-21T20:58:23.963Z,14.35
2019-04-21T21:01:18.941Z,19.67
2019-04-21T21:03:24.636Z,16.05
2019-04-21T21:05:48.012Z,14.98
2019-04-21T21:08:26.054Z,15.93
2019-04-21T21:10:44.244Z,17.37
2019-04-21T21:13:26.530Z,18.80
2019-04-21T21:16:09.564Z,18.57
2019-04-21T21:20:49.363Z,13.22
2019-04-21T21:23:11.588Z,11.63
2019-04-21T21:26:01.861Z,16.32
2019-04-21T21:28:07.497Z,15.40
2019-04-21T21:30:41.451Z,10.82
2019-04-21T21:33:12.678Z,18.65
2019-04-21T21:35:38.309Z,13.25
2019-04-21T21:38:13.066Z,11.25
2019-04-21T21:40:36.241Z,15.93
2019-04-21T21:42:53.634Z,13.88
2019-04-21T21:45:25.164Z,14.33
2019-04-21T21:48:06.937Z,14.00
2019-04-21T21:50:27.121Z,11.63
2019-04-21T21:52:59.938Z,10.68
2019-04-21T21:55:19.366Z,15.00
2019-04-21T21:57:51.798Z,10.43
2019-04-21T22:00:21.697Z,12.33
2019-04-21T22:02:51.741Z,14.20
2019-04-21T22:05:25.468Z,12.93
2019-04-21T22:07:49.599Z,14.98
2019-04-21T22:10:17.955Z,13.35
2019-04-21T22:12:56.788Z,13.50
2019-04-21T22:15:19.693Z,11.63
2019-04-21T22:18:09.431Z,14.55
2019-04-21T22:20:36.141Z,15.63
2019-04-21T22:22:51.747Z,13.80
2019-04-21T22:25:21.892Z,13.50
2019-04-21T22:27:43.471Z,17.40
2019-04-21T22:30:14.541Z,18.87
2019-04-21T22:32:50.271Z,12.40
2019-04-21T22:35:22.373Z,12.95
2019-04-21T22:37:51.333Z,16.20
2019-04-21T22:40:20.557Z,16.45
2019-04-21T22:42:48.634Z,12.68
2019-04-21T22:45:09.372Z,18.40
2019-04-21T22:47:39.869Z,12.40
2019-04-21T22:50:08.522Z,14.00
2019-04-21T22:52:37.411Z,15.63
2019-04-21T22:55:10.957Z,11.60
2019-04-21T22:57:40.782Z,13.15
2019-04-21T23:00:08.003Z,15.28
2019-04-21T23:02:35.726Z,10.15
2019-04-21T23:05:05.969Z,10.70
2019-04-21T23:07:44.257Z,14.20
2019-04-21T23:10:03.492Z,13.10
2019-04-21T23:12:36.286Z,12.80
2019-04-21T23:15:07.838Z,18.45
2019-04-21T23:17:50.451Z,17.85
2019-04-21T23:20:19.917Z,15.13
2019-04-21T23:22:58.198Z,16.73
2019-04-21T23:25:12.319Z,15.58
2019-04-21T23:27:46.915Z,15.30
2019-04-21T23:30:19.922Z,14.25
2019-04-21T23:32:36.303Z,13.80
2019-04-21T23:34:56.129Z,13.65
2019-04-21T23:37:25.728Z,10.08
2019-04-21T23:40:03.756Z,15.60
2019-04-21T23:42:29.250Z,14.10
2019-04-21T23:44:56.243Z,13.00
2019-04-21T23:47:37.022Z,14.55
2019-04-21T23:49:59.555Z,16.62
2019-04-21T23:52:19.866Z,13.28
2019-04-21T23:54:47.455Z,17.87
2019-04-21T23:57:23.201Z,12.88
2019-04-21T23:59:48.761Z,14.25
